Airfield :
LOGIN :

Register | Disclaimer

   EN    FR    IT 

 










Legend :    VFR   Marginal VFR   IFR   Intensive IFR   Very Intensive IFR
Visi :
Ceiling :
>= 8 km
>= 3000ft
5 to 8 km
1000 to 3000 ft
1500m to 5 km
500 to 1000 ft
800 to 1500m
200 to 500 ft
< 800m
< 200 ft
Symbols :   Thunderstorms  Fog  Heavy snow  Heavy precipitations  Wind > 20 kt
SIGMETs :     Misc.  Thunderstorms  Icing  Turbulence  Mountain Waves  Volcanic Ashes






- Airport Elevation : 512 ft
- IATA code : URO


LFOP - Rouen Vallée de Seine

CURRENT METAR :
  • 250400Z AUTO 20010KT 9999 -DZ OVC013/// ///TCU 10/10 Q1002

EXPIRED METARs :
  • 250330Z AUTO 19010KT 9999 -RA FEW016/// SCT021/// BKN027/// ///CB 10/10 Q1001
  • 250300Z AUTO 18010KT 8000 RA ///CB 10/10 Q1001
  • 250230Z AUTO 20007KT 9999 -RA ///CB 10/09 Q1002
  • 250200Z AUTO 22009KT 8000 -RA OVC044/// ///CB 10/09 Q1002
  • 250130Z AUTO 24022KT 200V270 3700 +RA BR FEW018/// BKN029/// OVC036/// ///CB 11/09 Q1003
  • 250030Z AUTO 19019KT 9999 -RA BKN018/// OVC034/// ///TCU 13/12 Q1002

TAF TAF LFOP
Valid from the 24 at 18:00 until the 25 at 18:00 UTC


241700Z 2418/2518 20023G33KT 9999 OVC018
TEMPO 2418/2509 3000 RA BKN012
PROB40
TEMPO 2418/2424 20025G43KT
PROB30
TEMPO 2423/2502 1200 +RA BKN006
BECMG 2501/2504 20015G25KT
BECMG 2504/2507 20012KT
TEMPO 2509/2512 3000 SHRA BKN008 BKN015TCU
TEMPO 2512/2518 4000 SHRA BKN008 BKN020CB
ATIS : +33 2 35 80 80 34
Met : +33 2 32 86 52 80



MET'MAP, your aeronautical weather chart ! - Copyright ORBIFLY December 2007 - Disclaimer

ORBIFLY MET'MAP TEAM :

Programming & Development : Alexandra Zaïnal
Concept & original design : Baudouin d'Aumeries
Assistance for programming : Marc-Olivier Méhu
Technical & hardware support : Manuel Goepfert

Contact : metmap@orbifly.com




SOURCES & CREDITS :

   NOAA